Time;durP1;ratioP1;P1;durP2;ratioP2;P2;SDS_P1;SDS_P2;PMS_P1;PMS_P2;Temp;Humidity;BMP_temperature;BMP_pressure;BME280_temperature;BME280_humidity;BME280_pressure;Samples;Min_cycle;Max_cycle;Signal;HPM_P1;HPM_P2
2023/11/06 00:00:38;;;;;;;25.02;18.27;;;8.10;99.90;;;;;;5069253;28;20086;-63
2023/11/06 00:03:05;;;;;;;24.45;16.45;;;8.10;99.90;;;;;;5075472;28;20049;-62
2023/11/06 00:05:36;;;;;;;24.38;18.50;;;8.10;99.90;;;;;;5067332;28;20139;-65
2023/11/06 00:08:05;;;;;;;22.13;18.77;;;8.10;99.90;;;;;;5069256;28;20583;-62
2023/11/06 00:10:32;;;;;;;22.80;17.70;;;8.10;99.90;;;;;;5071892;28;20051;-65
2023/11/06 00:12:59;;;;;;;23.15;16.30;;;8.00;99.90;;;;;;5066909;28;20047;-63
2023/11/06 00:15:27;;;;;;;21.67;17.45;;;8.00;99.90;;;;;;5069142;28;20044;-61
2023/11/06 00:17:55;;;;;;;23.08;17.95;;;8.00;99.90;;;;;;5070594;28;20061;-62
2023/11/06 00:20:22;;;;;;;22.77;17.90;;;8.00;99.90;;;;;;5070656;28;20456;-62
2023/11/06 00:22:49;;;;;;;25.70;17.17;;;8.00;99.90;;;;;;5066645;28;20044;-65
2023/11/06 00:25:16;;;;;;;23.85;17.92;;;8.00;99.90;;;;;;5077724;28;20044;-63
2023/11/06 00:27:43;;;;;;;20.50;16.90;;;8.00;99.90;;;;;;5070218;28;20039;-63
2023/11/06 00:30:11;;;;;;;22.63;15.93;;;8.00;99.90;;;;;;5070413;28;20051;-64
2023/11/06 00:32:38;;;;;;;28.30;18.10;;;8.00;99.90;;;;;;5070928;28;20044;-64
2023/11/06 00:35:05;;;;;;;23.45;17.00;;;8.00;99.90;;;;;;5070416;28;20101;-62
2023/11/06 00:37:33;;;;;;;27.13;17.80;;;8.00;99.90;;;;;;5057234;28;20481;-69
2023/11/06 00:39:59;;;;;;;24.02;18.63;;;8.00;99.90;;;;;;5071196;28;20044;-65
2023/11/06 00:42:26;;;;;;;26.52;18.02;;;8.00;99.90;;;;;;5052107;28;20060;-67
2023/11/06 00:44:53;;;;;;;24.08;17.60;;;8.00;99.90;;;;;;5052144;28;20208;-62
2023/11/06 00:47:20;;;;;;;26.50;17.00;;;8.00;99.90;;;;;;5068769;28;20041;-64
2023/11/06 00:49:47;;;;;;;23.83;16.38;;;8.10;99.90;;;;;;5056743;28;20166;-62
2023/11/06 00:52:14;;;;;;;25.77;18.23;;;8.10;99.90;;;;;;5068204;28;20045;-62
2023/11/06 00:54:41;;;;;;;22.40;18.08;;;8.10;99.90;;;;;;5069793;28;20124;-64
2023/11/06 00:57:09;;;;;;;30.60;21.80;;;8.10;99.90;;;;;;5069219;28;20102;-64
2023/11/06 00:59:36;;;;;;;26.55;20.73;;;8.10;99.90;;;;;;5054261;28;20110;-63
2023/11/06 01:02:03;;;;;;;25.02;19.25;;;8.10;99.90;;;;;;5065079;28;20068;-63
2023/11/06 01:04:30;;;;;;;24.00;16.83;;;8.10;99.90;;;;;;5073382;28;20044;-62
2023/11/06 01:06:57;;;;;;;23.75;18.65;;;8.10;99.90;;;;;;5067706;28;20135;-62
2023/11/06 01:09:24;;;;;;;28.60;17.58;;;8.10;99.90;;;;;;5069083;28;20066;-62
2023/11/06 01:11:51;;;;;;;27.75;16.83;;;8.10;99.90;;;;;;5069113;28;20578;-63
2023/11/06 01:14:18;;;;;;;29.17;19.05;;;8.10;99.90;;;;;;5074294;28;20051;-66
2023/11/06 01:16:45;;;;;;;25.55;18.55;;;8.10;99.90;;;;;;5073765;28;20082;-63
2023/11/06 01:19:12;;;;;;;30.65;17.73;;;8.10;99.90;;;;;;5073447;28;20044;-67
2023/11/06 01:21:39;;;;;;;30.90;19.20;;;8.10;99.90;;;;;;5055110;28;20072;-62
2023/11/06 01:24:07;;;;;;;31.00;18.80;;;8.10;99.90;;;;;;5074860;28;20048;-62
2023/11/06 01:26:34;;;;;;;27.02;19.40;;;8.20;99.90;;;;;;5076999;28;20043;-67
2023/11/06 01:29:01;;;;;;;26.35;18.52;;;8.20;99.90;;;;;;5081041;28;20505;-64
2023/11/06 01:31:31;;;;;;;24.38;17.10;;;8.20;99.90;;;;;;5055989;28;20048;-65
2023/11/06 01:33:57;;;;;;;33.40;17.83;;;8.10;99.90;;;;;;5072987;28;20040;-62
2023/11/06 01:36:25;;;;;;;24.80;16.88;;;8.20;99.90;;;;;;5074304;28;20144;-63
2023/11/06 01:38:52;;;;;;;32.00;16.55;;;8.20;99.90;;;;;;5055880;28;20048;-62
2023/11/06 01:41:19;;;;;;;27.63;19.25;;;8.20;99.90;;;;;;5072933;28;20044;-62
2023/11/06 01:43:46;;;;;;;30.27;19.17;;;8.10;99.90;;;;;;5069124;28;20040;-63
2023/11/06 01:46:13;;;;;;;26.42;18.83;;;8.10;99.90;;;;;;5073584;28;20101;-64
2023/11/06 01:48:43;;;;;;;29.13;18.30;;;8.10;99.90;;;;;;5071605;28;20071;-62
2023/11/06 01:51:10;;;;;;;29.55;18.52;;;8.10;99.90;;;;;;5072225;28;20075;-62
2023/11/06 01:53:37;;;;;;;31.73;16.83;;;8.20;99.90;;;;;;5067993;28;20129;-65
2023/11/06 01:56:04;;;;;;;26.00;18.48;;;8.10;99.90;;;;;;5077157;28;20047;-62
2023/11/06 01:58:32;;;;;;;31.42;20.00;;;8.10;99.90;;;;;;5069109;28;20050;-65
2023/11/06 02:00:59;;;;;;;26.58;17.67;;;8.10;99.90;;;;;;5053605;28;20056;-67
2023/11/06 02:03:26;;;;;;;25.20;19.08;;;8.20;99.90;;;;;;5054779;28;20056;-62
2023/11/06 02:05:54;;;;;;;30.48;17.92;;;8.10;99.90;;;;;;5068671;28;20051;-64
2023/11/06 02:08:21;;;;;;;23.13;17.05;;;8.10;99.90;;;;;;5069455;28;20059;-63
2023/11/06 02:10:48;;;;;;;33.53;20.63;;;8.10;99.90;;;;;;5054024;28;20044;-61
2023/11/06 02:13:15;;;;;;;26.52;18.70;;;8.20;99.90;;;;;;5075636;28;20155;-66
2023/11/06 02:15:42;;;;;;;29.90;19.33;;;8.20;99.90;;;;;;5078505;28;20044;-62
2023/11/06 02:18:09;;;;;;;30.55;19.58;;;8.20;99.90;;;;;;5068739;28;20041;-62
2023/11/06 02:20:37;;;;;;;27.10;17.90;;;8.20;99.90;;;;;;5071954;28;20557;-65
2023/11/06 02:23:05;;;;;;;29.73;17.58;;;8.20;99.90;;;;;;5072912;28;20044;-64
2023/11/06 02:25:32;;;;;;;34.33;20.27;;;8.20;99.90;;;;;;5076981;28;20051;-67
2023/11/06 02:27:59;;;;;;;26.58;17.30;;;8.20;99.90;;;;;;5054682;28;20049;-63
2023/11/06 02:30:26;;;;;;;27.27;18.52;;;8.20;99.90;;;;;;5070850;28;20501;-63
2023/11/06 02:32:52;;;;;;;33.50;20.52;;;8.30;99.90;;;;;;5080600;28;20036;-63
2023/11/06 02:35:19;;;;;;;28.85;17.77;;;8.20;99.90;;;;;;5051503;28;20044;-63
2023/11/06 02:37:46;;;;;;;32.55;18.73;;;8.30;99.90;;;;;;5071832;28;20600;-63
2023/11/06 02:40:13;;;;;;;25.60;16.73;;;8.30;99.90;;;;;;5075666;28;20131;-65
2023/11/06 02:42:40;;;;;;;27.88;18.27;;;8.30;99.90;;;;;;5075673;28;20493;-64
2023/11/06 02:45:09;;;;;;;26.05;17.17;;;8.30;99.90;;;;;;5068631;28;20064;-62
2023/11/06 02:47:35;;;;;;;24.50;16.88;;;8.30;99.90;;;;;;5075457;28;20410;-64
2023/11/06 02:50:05;;;;;;;30.13;19.30;;;8.30;99.90;;;;;;5068015;28;20048;-66
2023/11/06 02:52:32;;;;;;;32.53;18.85;;;8.30;99.90;;;;;;5070743;28;20048;-63
2023/11/06 02:54:59;;;;;;;27.77;17.83;;;8.30;99.90;;;;;;5073409;28;20078;-63
2023/11/06 02:57:26;;;;;;;24.33;17.25;;;8.30;99.90;;;;;;5073057;28;20467;-62
2023/11/06 02:59:53;;;;;;;22.27;17.50;;;8.30;99.90;;;;;;5077710;28;20040;-63
2023/11/06 03:02:20;;;;;;;25.38;18.35;;;8.30;99.90;;;;;;5055093;28;20121;-62
2023/11/06 03:04:47;;;;;;;25.25;18.70;;;8.30;99.90;;;;;;5070752;28;20043;-61
2023/11/06 03:07:14;;;;;;;30.00;18.83;;;8.30;99.90;;;;;;5053068;28;20056;-61
2023/11/06 03:09:41;;;;;;;25.58;17.50;;;8.30;99.90;;;;;;5065988;28;20102;-62
2023/11/06 03:12:08;;;;;;;30.88;20.50;;;8.30;99.90;;;;;;5070415;28;20502;-63
2023/11/06 03:14:35;;;;;;;25.48;17.63;;;8.30;99.90;;;;;;5067430;28;20395;-64
2023/11/06 03:17:03;;;;;;;28.73;20.92;;;8.30;99.90;;;;;;5066217;28;20044;-64
2023/11/06 03:19:30;;;;;;;25.88;17.17;;;8.30;99.90;;;;;;5068879;28;20044;-62
2023/11/06 03:21:56;;;;;;;23.98;18.50;;;8.30;99.90;;;;;;5070563;28;20048;-63
2023/11/06 03:24:23;;;;;;;27.00;17.83;;;8.30;99.90;;;;;;5060736;28;20071;-61
2023/11/06 03:26:51;;;;;;;30.27;19.42;;;8.30;99.90;;;;;;5070579;28;20428;-61
2023/11/06 03:29:18;;;;;;;23.83;19.00;;;8.30;99.90;;;;;;5043706;28;20064;-62
2023/11/06 03:31:45;;;;;;;28.00;19.33;;;8.30;99.90;;;;;;5074025;28;20098;-62
2023/11/06 03:34:12;;;;;;;25.50;19.90;;;8.30;99.90;;;;;;5056211;28;20055;-70
2023/11/06 03:36:43;;;;;;;24.73;19.55;;;8.30;99.90;;;;;;5072622;28;20056;-61
2023/11/06 03:39:10;;;;;;;26.88;18.58;;;8.30;99.90;;;;;;5069766;28;20047;-62
2023/11/06 03:41:36;;;;;;;26.30;17.70;;;8.30;99.90;;;;;;5069721;28;20053;-66
2023/11/06 03:44:04;;;;;;;28.27;17.40;;;8.30;99.90;;;;;;5056722;28;20052;-63
2023/11/06 03:46:32;;;;;;;24.15;17.92;;;8.30;99.90;;;;;;5075173;28;20051;-64
2023/11/06 03:49:03;;;;;;;26.30;18.42;;;8.30;99.90;;;;;;5071148;28;20040;-62
2023/11/06 03:51:30;;;;;;;28.80;21.05;;;8.30;99.90;;;;;;5060583;28;20101;-62
2023/11/06 03:53:57;;;;;;;34.50;22.17;;;8.40;99.90;;;;;;5067442;28;20051;-62
2023/11/06 03:56:24;;;;;;;30.63;21.17;;;8.40;99.90;;;;;;5071744;28;20051;-62
2023/11/06 03:58:51;;;;;;;28.52;20.10;;;8.40;99.90;;;;;;5067860;28;20119;-61
2023/11/06 04:01:18;;;;;;;29.15;18.88;;;8.40;99.90;;;;;;5067054;28;20036;-63
2023/11/06 04:03:45;;;;;;;33.33;19.88;;;8.40;99.90;;;;;;5073132;28;20094;-62
2023/11/06 04:06:12;;;;;;;28.05;19.48;;;8.40;99.90;;;;;;5068654;28;20545;-65
2023/11/06 04:08:39;;;;;;;36.03;21.13;;;8.40;99.90;;;;;;5077416;28;20058;-62
2023/11/06 04:11:07;;;;;;;31.35;22.38;;;8.40;99.90;;;;;;5073878;28;20044;-61
2023/11/06 04:13:35;;;;;;;33.80;22.75;;;8.40;99.90;;;;;;5068681;28;20037;-70
2023/11/06 04:16:03;;;;;;;37.58;20.77;;;8.40;99.90;;;;;;5076751;28;20135;-63
2023/11/06 04:18:30;;;;;;;30.73;20.00;;;8.40;99.90;;;;;;5073976;28;20055;-62
2023/11/06 04:20:57;;;;;;;26.20;20.23;;;8.40;99.90;;;;;;5069306;28;20043;-60
2023/11/06 04:23:24;;;;;;;26.30;19.88;;;8.40;99.90;;;;;;5070500;28;20122;-62
2023/11/06 04:25:51;;;;;;;31.48;20.90;;;8.40;99.90;;;;;;5073292;28;20102;-62
2023/11/06 04:28:18;;;;;;;28.08;19.88;;;8.40;99.90;;;;;;5069833;28;20143;-61
2023/11/06 04:30:45;;;;;;;28.50;21.15;;;8.40;99.90;;;;;;5074789;28;20052;-61
2023/11/06 04:33:12;;;;;;;24.75;19.45;;;8.50;99.90;;;;;;5069495;28;20551;-63
2023/11/06 04:35:40;;;;;;;24.30;18.67;;;8.40;99.90;;;;;;5068329;28;20053;-62
2023/11/06 04:38:06;;;;;;;28.02;18.45;;;8.50;99.90;;;;;;5071504;28;20076;-62
2023/11/06 04:40:33;;;;;;;23.73;18.38;;;8.40;99.90;;;;;;5071144;28;20041;-67
2023/11/06 04:43:01;;;;;;;34.42;21.10;;;8.40;99.90;;;;;;5069753;28;20098;-66
2023/11/06 04:45:28;;;;;;;30.45;20.20;;;8.50;99.90;;;;;;5071181;28;20048;-62
2023/11/06 04:47:55;;;;;;;27.15;20.55;;;8.50;99.90;;;;;;5070483;28;20384;-63
2023/11/06 04:50:22;;;;;;;29.17;21.40;;;8.50;99.90;;;;;;5072746;28;20037;-62
2023/11/06 04:52:48;;;;;;;28.33;19.20;;;8.50;99.90;;;;;;5073492;28;20049;-64
2023/11/06 04:55:15;;;;;;;30.92;18.83;;;8.50;99.90;;;;;;5072784;28;20124;-61
2023/11/06 04:57:42;;;;;;;23.83;17.88;;;8.50;99.90;;;;;;5077736;28;20052;-62
2023/11/06 05:00:10;;;;;;;29.55;18.50;;;8.50;99.90;;;;;;5073113;28;20040;-61
2023/11/06 05:02:37;;;;;;;25.90;18.45;;;8.50;99.90;;;;;;5072010;28;20125;-65
2023/11/06 05:05:06;;;;;;;24.50;18.23;;;8.50;99.90;;;;;;5076368;28;20044;-62
2023/11/06 05:07:33;;;;;;;26.27;18.92;;;8.50;99.90;;;;;;5072158;28;20052;-62
2023/11/06 05:10:01;;;;;;;23.02;17.13;;;8.50;99.90;;;;;;5076939;28;20044;-66
2023/11/06 05:12:28;;;;;;;22.13;16.15;;;8.50;99.90;;;;;;5070962;28;20048;-62
2023/11/06 05:14:55;;;;;;;25.55;19.88;;;8.50;99.90;;;;;;5082745;28;20052;-62
2023/11/06 05:17:22;;;;;;;26.27;17.58;;;8.50;99.90;;;;;;5078683;28;20048;-62
2023/11/06 05:19:49;;;;;;;25.30;18.83;;;8.50;99.90;;;;;;5070017;28;20045;-63
2023/11/06 05:22:16;;;;;;;24.90;17.70;;;8.50;99.90;;;;;;5078646;28;20122;-65
2023/11/06 05:24:44;;;;;;;27.20;18.63;;;8.50;99.90;;;;;;5076238;28;20044;-62
2023/11/06 05:27:12;;;;;;;24.48;18.27;;;8.50;99.90;;;;;;5072482;28;20518;-65
2023/11/06 05:29:40;;;;;;;28.52;19.83;;;8.50;99.90;;;;;;5076832;28;20040;-62
2023/11/06 05:32:06;;;;;;;23.13;16.83;;;8.50;99.90;;;;;;5071971;28;20449;-62
2023/11/06 05:34:38;;;;;;;21.48;16.15;;;8.50;99.90;;;;;;5071508;28;20070;-67
2023/11/06 05:37:06;;;;;;;24.10;17.60;;;8.50;99.90;;;;;;5077764;28;20127;-62
2023/11/06 05:39:35;;;;;;;26.60;17.27;;;8.50;99.90;;;;;;5069504;28;20068;-68
2023/11/06 05:42:02;;;;;;;26.33;17.55;;;8.50;99.90;;;;;;5080384;28;20464;-64
2023/11/06 05:44:29;;;;;;;28.08;17.00;;;8.50;99.90;;;;;;5072094;28;20482;-65
2023/11/06 05:46:56;;;;;;;29.40;17.80;;;8.50;99.90;;;;;;5054187;28;20131;-64
2023/11/06 05:49:23;;;;;;;26.67;17.30;;;8.50;99.90;;;;;;5075594;28;20044;-61
2023/11/06 05:51:50;;;;;;;27.55;17.90;;;8.50;99.90;;;;;;5070922;28;20049;-64
2023/11/06 05:54:19;;;;;;;30.83;17.23;;;8.50;99.90;;;;;;5077201;28;20044;-62
2023/11/06 05:56:46;;;;;;;25.42;16.77;;;8.50;99.90;;;;;;5077316;28;20055;-63
2023/11/06 05:59:13;;;;;;;24.88;17.13;;;8.50;99.90;;;;;;5064859;28;20047;-63
2023/11/06 06:01:39;;;;;;;27.38;18.88;;;8.50;99.90;;;;;;5072036;28;20067;-63
2023/11/06 06:04:07;;;;;;;26.10;16.80;;;8.50;99.90;;;;;;5076592;28;20056;-67
2023/11/06 06:06:34;;;;;;;26.90;17.60;;;8.50;99.90;;;;;;5072163;28;20041;-64
2023/11/06 06:09:01;;;;;;;27.30;17.20;;;8.50;99.90;;;;;;5072097;28;20047;-62
2023/11/06 06:11:28;;;;;;;27.50;16.73;;;8.50;99.90;;;;;;5077130;28;20566;-62
2023/11/06 06:13:55;;;;;;;28.70;18.55;;;8.50;99.90;;;;;;5071364;28;20049;-63
2023/11/06 06:16:22;;;;;;;27.98;17.08;;;8.50;99.90;;;;;;5072122;28;20052;-62
2023/11/06 06:18:49;;;;;;;24.20;17.05;;;8.50;99.90;;;;;;5067189;28;20098;-62
2023/11/06 06:21:16;;;;;;;27.73;18.30;;;8.50;99.90;;;;;;5073806;28;20159;-64
2023/11/06 06:23:43;;;;;;;27.33;18.52;;;8.50;99.90;;;;;;5071298;28;20554;-61
2023/11/06 06:26:10;;;;;;;30.80;17.40;;;8.60;99.90;;;;;;5074077;28;20044;-61
2023/11/06 06:28:37;;;;;;;31.83;19.70;;;8.50;99.90;;;;;;5077838;28;20044;-65
2023/11/06 06:31:04;;;;;;;34.47;21.45;;;8.60;99.90;;;;;;5070849;28;20040;-61
2023/11/06 06:33:30;;;;;;;32.45;19.45;;;8.60;99.90;;;;;;5079302;28;20094;-63
2023/11/06 06:35:58;;;;;;;36.65;22.40;;;8.60;99.90;;;;;;5071636;28;20052;-67
2023/11/06 06:38:24;;;;;;;35.08;19.35;;;8.60;99.90;;;;;;5070909;28;20045;-62
2023/11/06 06:40:51;;;;;;;35.67;22.05;;;8.60;99.90;;;;;;5070224;28;20068;-61
2023/11/06 06:43:23;;;;;;;34.47;19.38;;;8.60;99.90;;;;;;5073499;28;20123;-61
2023/11/06 06:45:50;;;;;;;40.40;23.35;;;8.60;99.90;;;;;;5070457;28;20110;-61
2023/11/06 06:48:17;;;;;;;38.95;23.35;;;8.60;99.90;;;;;;5072490;28;20045;-64
2023/11/06 06:50:44;;;;;;;39.30;21.25;;;8.60;99.90;;;;;;5070782;28;20111;-61
2023/11/06 06:53:11;;;;;;;35.97;21.88;;;8.70;99.90;;;;;;5078313;28;20048;-61
2023/11/06 06:55:38;;;;;;;29.73;19.58;;;8.70;99.90;;;;;;5071709;28;20044;-64
2023/11/06 06:58:05;;;;;;;37.03;23.25;;;8.70;99.90;;;;;;5076442;28;20142;-63
2023/11/06 07:00:33;;;;;;;37.33;23.20;;;8.70;99.90;;;;;;5072602;28;20459;-64
2023/11/06 07:03:00;;;;;;;32.72;21.02;;;8.70;99.90;;;;;;5071801;28;20041;-63
2023/11/06 07:05:28;;;;;;;39.60;21.95;;;8.80;99.90;;;;;;5070467;28;20433;-61
2023/11/06 07:07:55;;;;;;;43.40;25.08;;;8.80;99.90;;;;;;5070837;28;20067;-61
2023/11/06 07:10:22;;;;;;;41.25;24.50;;;8.80;99.90;;;;;;5068828;28;20048;-61
2023/11/06 07:12:49;;;;;;;36.40;23.17;;;8.80;99.90;;;;;;5057103;28;20647;-62
2023/11/06 07:15:16;;;;;;;38.13;22.20;;;8.80;99.90;;;;;;5065286;28;20483;-62
2023/11/06 07:17:43;;;;;;;30.85;19.58;;;8.90;99.90;;;;;;5074006;28;20383;-61
2023/11/06 07:20:15;;;;;;;42.05;23.10;;;8.90;99.90;;;;;;5068444;28;20397;-62
2023/11/06 07:22:42;;;;;;;36.22;22.65;;;8.90;99.90;;;;;;5064985;28;20494;-61
2023/11/06 07:25:09;;;;;;;43.25;25.05;;;9.00;99.90;;;;;;5069090;28;20106;-61
2023/11/06 07:27:37;;;;;;;36.95;21.95;;;9.00;99.90;;;;;;5070366;28;20075;-64
2023/11/06 07:30:04;;;;;;;42.88;25.40;;;9.00;99.90;;;;;;5072894;28;20036;-61
2023/11/06 07:32:32;;;;;;;41.20;24.05;;;9.00;99.90;;;;;;5070047;28;20134;-62
2023/11/06 07:35:00;;;;;;;46.38;24.08;;;9.00;99.90;;;;;;5072634;28;20641;-63
2023/11/06 07:37:28;;;;;;;37.25;23.10;;;9.00;99.90;;;;;;5072489;28;20139;-62
2023/11/06 07:39:56;;;;;;;41.20;23.23;;;9.10;99.90;;;;;;5070111;28;20130;-61
2023/11/06 07:42:23;;;;;;;36.65;22.17;;;9.10;99.90;;;;;;5066871;28;20101;-61
2023/11/06 07:44:50;;;;;;;35.08;21.92;;;9.10;99.90;;;;;;5067178;28;20375;-61
2023/11/06 07:47:17;;;;;;;36.38;22.45;;;9.10;99.90;;;;;;5069945;28;20041;-61
2023/11/06 07:49:44;;;;;;;36.05;21.00;;;9.10;99.90;;;;;;5071106;28;20043;-62
2023/11/06 07:52:10;;;;;;;35.58;20.63;;;9.10;99.90;;;;;;5074803;28;20068;-61
2023/11/06 09:05:40;;;;;;;39.85;23.35;;;9.00;99.90;;;;;;5027052;28;20041;-62
2023/11/06 09:08:07;;;;;;;33.17;22.35;;;9.00;99.90;;;;;;5028637;28;20124;-68
2023/11/06 09:10:34;;;;;;;42.40;24.10;;;9.00;99.90;;;;;;5029509;28;20073;-62
2023/11/06 09:13:02;;;;;;;49.20;22.83;;;9.00;99.90;;;;;;5027258;28;20492;-66
2023/11/06 09:15:29;;;;;;;36.17;24.90;;;9.00;99.90;;;;;;5031685;28;20120;-60
2023/11/06 09:17:57;;;;;;;34.72;21.80;;;9.00;99.90;;;;;;5024302;28;20038;-60
2023/11/06 09:20:24;;;;;;;36.92;20.73;;;9.00;99.90;;;;;;5026787;28;20048;-61
2023/11/06 09:22:51;;;;;;;40.60;22.92;;;9.00;99.90;;;;;;5028353;28;20506;-63
2023/11/06 09:25:18;;;;;;;41.20;22.73;;;9.00;99.90;;;;;;5027051;28;20065;-61
2023/11/06 09:27:45;;;;;;;53.97;24.02;;;9.10;99.90;;;;;;5025699;28;20041;-61
2023/11/06 09:30:12;;;;;;;135.43;32.38;;;9.00;99.90;;;;;;5031631;28;20037;-62
2023/11/06 09:32:39;;;;;;;97.75;25.77;;;9.00;99.90;;;;;;5033318;28;20041;-62
2023/11/06 09:35:06;;;;;;;34.63;21.38;;;9.00;99.90;;;;;;5035606;28;20052;-61
2023/11/06 09:37:33;;;;;;;45.95;22.60;;;9.00;99.90;;;;;;5026991;28;20578;-63
2023/11/06 09:40:01;;;;;;;52.88;24.70;;;8.90;99.90;;;;;;5033234;28;20421;-62
2023/11/06 09:42:29;;;;;;;35.08;23.88;;;9.00;99.90;;;;;;5033045;28;20494;-62
2023/11/06 09:44:56;;;;;;;35.50;22.23;;;9.00;99.90;;;;;;5031955;28;20041;-61
2023/11/06 09:47:22;;;;;;;34.38;22.98;;;9.00;99.90;;;;;;5032693;28;20037;-61
2023/11/06 09:50:01;;;;;;;46.85;18.05;;;9.00;99.90;;;;;;5031479;28;20514;-61
2023/11/06 09:52:29;;;;;;;25.63;17.45;;;9.10;99.90;;;;;;5030022;28;20297;-61
2023/11/06 09:54:57;;;;;;;35.03;18.10;;;9.10;99.90;;;;;;5033158;28;20041;-68
2023/11/06 09:57:25;;;;;;;33.75;19.10;;;9.10;99.90;;;;;;5033680;28;20096;-63
2023/11/06 09:59:53;;;;;;;40.90;18.90;;;9.20;99.90;;;;;;5031296;28;20080;-67
2023/11/06 10:02:23;;;;;;;24.58;18.05;;;9.20;99.90;;;;;;5033382;28;20041;-61
2023/11/06 10:04:50;;;;;;;36.25;19.05;;;9.30;99.90;;;;;;5047432;28;20051;-61
2023/11/06 10:07:36;;;;;;;34.47;19.58;;;9.30;99.90;;;;;;5048437;28;20392;-66
2023/11/06 10:10:14;;;;;;;33.50;18.38;;;9.30;99.90;;;;;;5053383;28;20068;-62
2023/11/06 10:12:42;;;;;;;21.75;15.05;;;9.30;99.90;;;;;;5048797;28;20033;-62
2023/11/06 10:15:11;;;;;;;26.00;15.63;;;9.30;99.90;;;;;;5038601;28;20099;-62
2023/11/06 10:17:39;;;;;;;22.52;15.52;;;9.30;99.90;;;;;;5049571;28;20049;-64
2023/11/06 10:20:16;;;;;;;24.77;15.73;;;9.30;99.90;;;;;;5049653;28;20045;-62
2023/11/06 10:22:55;;;;;;;26.13;17.80;;;9.40;99.90;;;;;;5051515;28;20047;-63
2023/11/06 10:25:27;;;;;;;32.10;15.77;;;9.40;99.90;;;;;;5052015;28;20494;-62
2023/11/06 10:27:57;;;;;;;41.40;16.27;;;9.40;99.90;;;;;;5051030;28;20040;-60
2023/11/06 10:30:25;;;;;;;19.42;13.85;;;9.40;99.90;;;;;;5048771;28;20687;-67
2023/11/06 10:32:52;;;;;;;19.75;12.43;;;9.40;99.90;;;;;;5053268;28;20087;-61
2023/11/06 10:35:20;;;;;;;22.50;14.07;;;9.40;99.90;;;;;;5050473;28;20040;-62
2023/11/06 10:37:48;;;;;;;19.73;13.57;;;9.50;99.90;;;;;;5055734;28;20037;-60
2023/11/06 10:40:19;;;;;;;21.67;13.48;;;9.50;99.90;;;;;;5053125;28;20487;-61
2023/11/06 10:42:50;;;;;;;19.25;12.48;;;9.50;99.90;;;;;;5054667;28;20041;-60
2023/11/06 10:45:18;;;;;;;13.98;10.02;;;9.50;99.90;;;;;;5056105;28;20128;-63
2023/11/06 10:47:46;;;;;;;14.90;11.77;;;9.60;99.90;;;;;;5059876;28;20040;-61
2023/11/06 10:50:20;;;;;;;18.55;14.02;;;9.50;99.90;;;;;;5049634;28;20119;-62
2023/11/06 10:52:55;;;;;;;24.63;14.48;;;9.50;99.90;;;;;;5050065;28;20049;-61
2023/11/06 10:55:22;;;;;;;34.67;15.30;;;9.50;99.90;;;;;;5055413;28;20049;-62
2023/11/06 10:57:59;;;;;;;56.70;17.17;;;9.40;99.90;;;;;;5055783;28;20048;-63
2023/11/06 11:00:26;;;;;;;65.93;18.38;;;9.40;99.90;;;;;;5051418;28;20083;-61
2023/11/06 11:02:55;;;;;;;43.03;18.05;;;9.40;99.90;;;;;;5052706;28;20052;-62
2023/11/06 11:05:24;;;;;;;44.22;16.95;;;9.30;99.90;;;;;;5031684;28;20428;-67
2023/11/06 11:07:54;;;;;;;87.55;21.80;;;9.30;99.90;;;;;;5023216;28;20491;-62
2023/11/06 11:10:26;;;;;;;112.38;24.58;;;9.30;99.90;;;;;;5026214;28;22260;-62
2023/11/06 11:12:57;;;;;;;57.03;22.15;;;9.20;99.90;;;;;;5026483;28;20644;-65
2023/11/06 11:15:30;;;;;;;105.70;24.20;;;9.30;99.90;;;;;;5028237;28;20033;-62
2023/11/06 11:17:59;;;;;;;90.90;22.55;;;9.20;99.90;;;;;;5024304;28;20053;-61
2023/11/06 11:20:51;;;;;;;53.85;20.40;;;9.20;99.90;;;;;;5025194;28;20052;-62
2023/11/06 11:23:42;;;;;;;125.70;26.58;;;9.20;99.90;;;;;;5027707;28;20557;-65
2023/11/06 11:26:12;;;;;;;66.85;20.85;;;9.10;99.90;;;;;;5024104;28;20033;-61
2023/11/06 11:28:59;;;;;;;97.07;25.25;;;9.10;99.90;;;;;;5026726;28;20041;-61
2023/11/06 11:31:36;;;;;;;44.47;20.30;;;9.10;99.90;;;;;;5019208;28;20045;-62
2023/11/06 11:34:05;;;;;;;37.25;20.70;;;9.10;99.90;;;;;;5018527;28;20530;-62
2023/11/06 11:36:38;;;;;;;39.20;21.58;;;9.10;99.90;;;;;;5024666;28;20042;-65
2023/11/06 11:39:16;;;;;;;47.03;21.45;;;9.10;99.90;;;;;;5022592;28;20050;-63
2023/11/06 11:42:04;;;;;;;33.80;22.33;;;9.20;99.90;;;;;;5025959;28;20076;-68
2023/11/06 11:44:32;;;;;;;31.55;20.48;;;9.20;99.90;;;;;;5027505;28;20033;-62
2023/11/06 11:47:00;;;;;;;28.63;19.20;;;9.10;99.90;;;;;;5023942;28;20480;-62
2023/11/06 11:49:47;;;;;;;30.10;20.70;;;9.30;99.90;;;;;;5029381;28;20037;-63
2023/11/06 11:52:23;;;;;;;26.55;20.95;;;9.20;99.90;;;;;;5025204;28;20156;-64
2023/11/06 11:54:51;;;;;;;33.90;22.10;;;9.20;99.90;;;;;;5026391;28;20041;-68
2023/11/06 11:57:18;;;;;;;36.08;21.77;;;9.20;99.90;;;;;;5024756;28;20095;-63
2023/11/06 11:59:49;;;;;;;101.47;28.20;;;9.10;99.90;;;;;;5024695;28;20038;-65
2023/11/06 12:02:27;;;;;;;75.13;22.20;;;9.10;99.90;;;;;;5017847;28;20045;-62
2023/11/06 12:05:12;;;;;;;34.30;14.63;;;9.10;99.90;;;;;;5030560;28;20091;-62
2023/11/06 12:07:42;;;;;;;93.60;17.88;;;9.00;99.90;;;;;;5043438;28;20051;-62
2023/11/06 12:10:09;;;;;;;35.95;13.18;;;8.90;99.90;;;;;;5052541;28;20040;-62
2023/11/06 12:12:37;;;;;;;31.02;10.43;;;8.90;99.90;;;;;;5032351;28;20068;-68
2023/11/06 12:15:10;;;;;;;83.95;14.07;;;8.70;99.90;;;;;;5056145;28;20044;-63
2023/11/06 12:17:38;;;;;;;46.72;13.05;;;8.60;99.90;;;;;;5040776;28;20048;-66
2023/11/06 12:20:10;;;;;;;12.90;9.85;;;8.60;99.90;;;;;;5047520;28;20565;-61
2023/11/06 12:22:48;;;;;;;39.40;10.80;;;8.50;99.90;;;;;;5038589;28;20041;-67
2023/11/06 12:25:26;;;;;;;20.58;9.10;;;8.50;99.90;;;;;;5047599;28;20049;-61
2023/11/06 12:27:54;;;;;;;32.40;9.00;;;8.50;99.90;;;;;;5044693;28;20041;-64
2023/11/06 12:30:21;;;;;;;28.88;8.20;;;8.40;99.90;;;;;;5039157;28;20041;-68
2023/11/06 12:32:48;;;;;;;38.60;8.90;;;8.30;99.90;;;;;;5047090;28;20037;-62
2023/11/06 12:35:17;;;;;;;26.17;9.00;;;8.20;99.90;;;;;;5048421;28;20045;-66
2023/11/06 12:37:58;;;;;;;54.30;9.40;;;8.10;99.90;;;;;;5050150;28;20121;-63
2023/11/06 12:40:27;;;;;;;25.75;7.35;;;7.90;99.90;;;;;;5037020;28;20045;-62
2023/11/06 12:42:56;;;;;;;10.70;6.53;;;8.00;99.90;;;;;;5048767;28;20060;-63
2023/11/06 12:45:34;;;;;;;22.23;7.65;;;8.00;99.90;;;;;;5039108;28;20041;-63
2023/11/06 12:48:29;;;;;;;32.03;9.90;;;7.90;99.90;;;;;;5041789;28;20045;-64
2023/11/06 12:51:06;;;;;;;17.58;8.73;;;7.90;99.90;;;;;;5049365;28;20418;-62
2023/11/06 12:53:49;;;;;;;22.75;8.60;;;7.80;99.90;;;;;;5045627;28;20048;-67
2023/11/06 12:56:16;;;;;;;68.18;13.07;;;7.80;99.90;;;;;;5045580;28;20318;-65
2023/11/06 12:58:43;;;;;;;15.38;7.20;;;7.80;99.90;;;;;;5043996;28;20037;-62
2023/11/06 13:01:23;;;;;;;31.15;10.05;;;7.80;99.90;;;;;;5052093;28;20044;-62
2023/11/06 13:03:53;;;;;;;29.42;8.10;;;7.80;99.90;;;;;;5042873;28;20157;-62
2023/11/06 13:06:21;;;;;;;;;;;7.80;99.90;;;;;;5049959;28;20044;-64
2023/11/06 13:08:49;;;;;;;57.70;10.63;;;7.70;99.90;;;;;;5051086;28;19925;-66
2023/11/06 13:11:16;;;;;;;72.93;12.73;;;7.70;99.90;;;;;;5053279;28;20045;-64
2023/11/06 13:14:00;;;;;;;75.10;13.45;;;7.60;99.90;;;;;;5048175;28;20049;-63
2023/11/06 13:16:29;;;;;;;50.13;9.77;;;7.60;99.90;;;;;;5058931;28;20650;-62
2023/11/06 13:18:56;;;;;;;36.92;8.50;;;7.50;99.90;;;;;;5051107;28;20041;-64
2023/11/06 13:21:28;;;;;;;34.33;8.35;;;7.50;99.90;;;;;;5054746;28;20048;-61
2023/11/06 13:23:56;;;;;;;75.20;10.32;;;7.40;99.90;;;;;;5047487;28;20138;-66
2023/11/06 13:26:23;;;;;;;77.63;11.32;;;7.40;99.90;;;;;;5056347;28;20037;-62
2023/11/06 13:28:51;;;;;;;42.58;8.75;;;7.30;99.90;;;;;;5053799;28;20064;-61
2023/11/06 13:31:21;;;;;;;13.25;6.10;;;7.30;99.90;;;;;;5053688;28;20037;-64
2023/11/06 13:33:49;;;;;;;30.40;7.80;;;7.30;99.90;;;;;;5049651;28;20048;-63
2023/11/06 13:36:18;;;;;;;45.97;8.70;;;7.20;99.90;;;;;;5056921;28;20036;-63
2023/11/06 13:38:46;;;;;;;17.10;7.22;;;7.10;99.90;;;;;;5053908;28;20064;-69
2023/11/06 13:41:21;;;;;;;46.38;9.18;;;7.10;99.90;;;;;;5055072;28;20119;-61
2023/11/06 13:43:50;;;;;;;28.55;7.53;;;7.10;99.90;;;;;;5052322;28;20128;-62
2023/11/06 13:46:18;;;;;;;48.58;9.82;;;7.00;99.90;;;;;;5050967;28;20041;-63
2023/11/06 13:48:48;;;;;;;27.75;6.10;;;7.10;99.90;;;;;;5056567;28;20465;-62
2023/11/06 13:51:25;;;;;;;20.10;7.55;;;7.10;99.90;;;;;;5051512;28;20120;-64
2023/11/06 13:53:56;;;;;;;45.90;8.75;;;7.10;99.90;;;;;;5053904;28;20048;-63
2023/11/06 13:56:31;;;;;;;40.78;8.27;;;7.10;99.90;;;;;;5053838;28;20135;-63